^^
Station Historical Data
Daily Summary for February 13, 2017 Units:  English    Metric   Both
« Previous Day
Next Day »
Daily Weekly Monthly Yearly Custom
  High: Low: Average:
Temperature: 38.3 °F 30.3 °F 34.3 °F
Dew Point: 34.9 °F 19.2 °F 22 °F
Humidity: 93 % 51 % 61 %
Wind Speed: 24.0 mph 1.3 mph 11.9 mph
Wind Gust: 40.3 mph - -
Wind:- - WNW
Pressure: 30.07 in 29.70 in -
Precipitation: 0.00 in    
Historical Graphs
 
 
Tabular Data for February 13, 2017
Time Temperature Dew Point Pressure Wind Wind Speed Wind Gust Humidity Rainfall Rate (Hourly) solar Conditions
00:03 36.6 °F 34.8 °F 29.70 in WNW 16.0 mph 23.0 mph 93 % 0.00 in 0.0 W/m2 RA
00:08 37.0 °F 34.9 °F 29.70 in WNW 14.1 mph 24.0 mph 92 % 0.00 in 0.0 W/m2 RA
00:13 37.4 °F 34.5 °F 29.71 in NW 16.1 mph 25.3 mph 89 % 0.00 in 0.0 W/m2 CLR
00:18 37.6 °F 34.4 °F 29.70 in WNW 13.3 mph 25.3 mph 88 % 0.00 in 0.0 W/m2 CLR
00:23 38.0 °F 33.9 °F 29.71 in WNW 14.6 mph 23.0 mph 85 % 0.00 in 0.0 W/m2 CLR
00:28 38.1 °F 33.1 °F 29.71 in West 11.2 mph 16.1 mph 82 % 0.00 in 0.0 W/m2 CLR
00:33 38.1 °F 32.5 °F 29.72 in WSW 6.9 mph 15.0 mph 80 % 0.00 in 0.0 W/m2 CLR
00:38 38.1 °F 31.8 °F 29.71 in West 10.2 mph 12.7 mph 78 % 0.00 in 0.0 W/m2 CLR
00:39 38.1 °F 31.5 °F 29.71 in WSW 10.6 mph 12.7 mph 77 % 0.00 in 0.0 W/m2 CLR
00:44 38.0 °F 31.1 °F 29.71 in West 5.9 mph 11.5 mph 76 % 0.00 in 0.0 W/m2 CLR
00:49 37.9 °F 30.7 °F 29.71 in WNW 12.0 mph 18.4 mph 75 % 0.00 in 0.0 W/m2 CLR
00:54 37.9 °F 30.4 °F 29.71 in West 9.3 mph 21.9 mph 74 % 0.00 in 0.0 W/m2 CLR
00:59 38.1 °F 29.9 °F 29.71 in WNW 11.0 mph 25.3 mph 72 % 0.00 in 0.0 W/m2 CLR
01:04 38.3 °F 29.7 °F 29.72 in WSW 15.8 mph 28.8 mph 71 % 0.00 in 0.0 W/m2 CLR
01:09 38.2 °F 29.6 °F 29.72 in West 13.4 mph 26.5 mph 71 % 0.00 in 0.0 W/m2 CLR
01:14 38.2 °F 29.3 °F 29.72 in WNW 18.4 mph 28.8 mph 70 % 0.00 in 0.0 W/m2 CLR
01:19 38.1 °F 29.2 °F 29.73 in WNW 12.3 mph 24.2 mph 70 % 0.00 in 0.0 W/m2 CLR
01:24 38.0 °F 28.7 °F 29.73 in WSW 12.6 mph 19.6 mph 69 % 0.00 in 0.0 W/m2 CLR
01:29 37.9 °F 29.0 °F 29.74 in West 11.8 mph 24.2 mph 70 % 0.00 in 0.0 W/m2 CLR
01:34 37.7 °F 28.8 °F 29.74 in West 11.6 mph 15.0 mph 70 % 0.00 in 0.0 W/m2 CLR
01:39 37.6 °F 28.7 °F 29.74 in NW 9.9 mph 16.1 mph 70 % 0.00 in 0.0 W/m2 CLR
01:44 37.5 °F 28.6 °F 29.74 in West 13.2 mph 18.4 mph 70 % 0.00 in 0.0 W/m2 CLR
01:49 37.4 °F 28.5 °F 29.75 in WNW 13.1 mph 19.6 mph 70 % 0.00 in 0.0 W/m2 CLR
01:54 37.3 °F 28.1 °F 29.75 in WNW 12.1 mph 17.3 mph 69 % 0.00 in 0.0 W/m2 CLR
01:59 37.3 °F 27.7 °F 29.75 in WNW 16.4 mph 17.0 mph 68 % 0.00 in 0.0 W/m2 CLR
02:04 37.3 °F 27.0 °F 29.76 in WNW 14.7 mph 21.9 mph 66 % 0.00 in 0.0 W/m2 CLR
02:09 37.3 °F 27.0 °F 29.76 in WNW 11.2 mph 28.8 mph 66 % 0.00 in 0.0 W/m2 CLR
02:14 37.3 °F 27.0 °F 29.77 in WNW 12.2 mph 20.7 mph 66 % 0.00 in 0.0 W/m2 CLR
02:19 37.4 °F 27.1 °F 29.76 in WNW 20.0 mph 28.8 mph 66 % 0.00 in 0.0 W/m2 CLR
02:24 37.4 °F 26.7 °F 29.76 in West 17.9 mph 31.1 mph 65 % 0.00 in 0.0 W/m2 CLR
02:29 37.4 °F 26.7 °F 29.77 in West 16.4 mph 24.2 mph 65 % 0.00 in 0.0 W/m2 CLR
02:34 37.2 °F 26.1 °F 29.77 in WNW 16.2 mph 31.1 mph 64 % 0.00 in 0.0 W/m2 CLR
02:39 37.0 °F 25.2 °F 29.78 in WSW 12.2 mph 18.4 mph 62 % 0.00 in 0.0 W/m2 CLR
02:44 36.8 °F 24.6 °F 29.78 in WNW 15.4 mph 25.3 mph 61 % 0.00 in 0.0 W/m2 CLR
02:49 36.6 °F 24.0 °F 29.78 in NW 15.6 mph 26.5 mph 60 % 0.00 in 0.0 W/m2 CLR
02:54 36.5 °F 23.9 °F 29.78 in NNW 18.4 mph 31.1 mph 60 % 0.00 in 0.0 W/m2 CLR
02:59 36.4 °F 24.6 °F 29.78 in WNW 12.3 mph 16.1 mph 62 % 0.00 in 0.0 W/m2 CLR
03:04 36.2 °F 25.6 °F 29.79 in WNW 10.7 mph 16.1 mph 65 % 0.00 in 0.0 W/m2 CLR
03:09 36.0 °F 26.1 °F 29.79 in West 10.2 mph 12.7 mph 67 % 0.00 in 0.0 W/m2 CLR
03:14 35.7 °F 25.8 °F 29.79 in WNW 10.3 mph 24.0 mph 67 % 0.00 in 0.0 W/m2 CLR
03:19 35.3 °F 25.8 °F 29.79 in WNW 11.4 mph 15.0 mph 68 % 0.00 in 0.0 W/m2 CLR
03:24 34.9 °F 25.4 °F 29.79 in WNW 19.3 mph 26.5 mph 68 % 0.00 in 0.0 W/m2 CLR
03:29 34.6 °F 25.1 °F 29.79 in WSW 15.1 mph 21.0 mph 68 % 0.00 in 0.0 W/m2 CLR
03:34 34.3 °F 24.8 °F 29.80 in NW 14.4 mph 22.0 mph 68 % 0.00 in 0.0 W/m2 CLR
03:39 34.0 °F 24.5 °F 29.79 in NW 18.1 mph 28.8 mph 68 % 0.00 in 0.0 W/m2 CLR
03:44 33.9 °F 24.1 °F 29.80 in West 12.3 mph 21.0 mph 67 % 0.00 in 0.0 W/m2 CLR
03:49 33.8 °F 24.0 °F 29.80 in NW 14.5 mph 20.7 mph 67 % 0.00 in 0.0 W/m2 CLR
03:54 33.7 °F 23.5 °F 29.80 in West 9.7 mph 21.9 mph 66 % 0.00 in 0.0 W/m2 CLR
03:59 33.5 °F 23.0 °F 29.80 in NW 18.7 mph 40.3 mph 65 % 0.00 in 0.0 W/m2 CLR
04:04 33.5 °F 22.6 °F 29.80 in WNW 15.8 mph 25.3 mph 64 % 0.00 in 0.0 W/m2 CLR
04:09 33.4 °F 21.8 °F 29.80 in NW 15.1 mph 24.2 mph 62 % 0.00 in 0.0 W/m2 CLR
04:15 33.3 °F 21.3 °F 29.81 in West 18.1 mph 29.0 mph 61 % 0.00 in 0.0 W/m2 CLR
04:20 33.4 °F 21.0 °F 29.81 in WNW 21.1 mph 28.8 mph 60 % 0.00 in 0.0 W/m2 CLR
04:25 33.4 °F 20.6 °F 29.82 in WNW 16.5 mph 26.5 mph 59 % 0.00 in 0.0 W/m2 CLR
04:30 33.3 °F 20.9 °F 29.82 in WNW 20.3 mph 21.9 mph 60 % 0.00 in 0.0 W/m2 CLR
04:35 33.2 °F 20.8 °F 29.82 in NW 24.0 mph 34.5 mph 60 % 0.00 in 0.0 W/m2 CLR
04:40 33.2 °F 20.4 °F 29.82 in WNW 16.1 mph 23.0 mph 59 % 0.00 in 0.0 W/m2 CLR
04:45 33.1 °F 20.3 °F 29.83 in West 15.2 mph 21.9 mph 59 % 0.00 in 0.0 W/m2 CLR
04:50 32.9 °F 20.5 °F 29.83 in West 17.4 mph 25.3 mph 60 % 0.00 in 0.0 W/m2 CLR
04:55 32.9 °F 20.1 °F 29.83 in WNW 15.2 mph 24.2 mph 59 % 0.00 in 0.0 W/m2 CLR
05:00 32.7 °F 19.9 °F 29.83 in West 13.8 mph 20.7 mph 59 % 0.00 in 0.0 W/m2 CLR
05:05 32.7 °F 19.9 °F 29.83 in WNW 19.8 mph 26.5 mph 59 % 0.00 in 0.0 W/m2 CLR
05:10 32.7 °F 20.7 °F 29.83 in WNW 12.6 mph 19.6 mph 61 % 0.00 in 0.0 W/m2 CLR
05:15 32.6 °F 20.6 °F 29.83 in WNW 16.5 mph 23.0 mph 61 % 0.00 in 0.0 W/m2 CLR
05:20 32.5 °F 20.9 °F 29.83 in WNW 17.0 mph 25.3 mph 62 % 0.00 in 0.0 W/m2 CLR
05:25 32.4 °F 20.4 °F 29.83 in WNW 17.7 mph 28.8 mph 61 % 0.00 in 0.0 W/m2 CLR
05:30 32.4 °F 20.4 °F 29.83 in WNW 14.5 mph 23.0 mph 61 % 0.00 in 0.0 W/m2 CLR
05:35 32.5 °F 20.1 °F 29.84 in NW 20.8 mph 27.6 mph 60 % 0.00 in 0.0 W/m2 CLR
05:40 32.5 °F 20.1 °F 29.84 in WNW 14.7 mph 17.3 mph 60 % 0.00 in 0.0 W/m2 CLR
05:45 32.5 °F 19.7 °F 29.84 in West 19.3 mph 29.9 mph 59 % 0.00 in 0.0 W/m2 CLR
05:50 32.5 °F 19.7 °F 29.84 in WNW 21.2 mph 26.5 mph 59 % 0.00 in 0.0 W/m2 CLR
05:55 32.5 °F 19.7 °F 29.84 in West 13.3 mph 19.6 mph 59 % 0.00 in 0.0 W/m2 CLR
06:00 32.5 °F 19.7 °F 29.85 in West 11.2 mph 20.7 mph 59 % 0.00 in 0.0 W/m2 CLR
06:05 32.5 °F 19.7 °F 29.85 in WNW 18.4 mph 26.5 mph 59 % 0.00 in 0.0 W/m2 CLR
06:10 32.4 °F 19.7 °F 29.86 in WNW 12.4 mph 23.0 mph 59 % 0.00 in 0.0 W/m2 CLR
06:15 32.3 °F 20.0 °F 29.86 in WNW 16.1 mph 21.0 mph 60 % 0.00 in 0.0 W/m2 CLR
06:20 32.3 °F 20.0 °F 29.86 in WNW 12.3 mph 13.8 mph 60 % 0.00 in 0.0 W/m2 CLR
06:25 32.2 °F 19.9 °F 29.86 in West 15.7 mph 20.7 mph 60 % 0.00 in 0.0 W/m2 CLR
06:31 32.1 °F 19.8 °F 29.86 in WSW 11.4 mph 17.3 mph 60 % 0.00 in 0.0 W/m2 CLR
06:36 32.0 °F 19.7 °F 29.86 in WSW 9.5 mph 13.8 mph 60 % 0.00 in 0.0 W/m2 CLR
06:41 32.0 °F 19.7 °F 29.86 in West 12.5 mph 16.1 mph 60 % 0.00 in 0.0 W/m2 CLR
06:46 32.0 °F 20.1 °F 29.86 in NW 15.8 mph 23.0 mph 61 % 0.00 in 0.0 W/m2 CLR
06:51 32.0 °F 20.1 °F 29.86 in West 11.5 mph 18.4 mph 61 % 0.00 in 0.0 W/m2 CLR
06:56 32.0 °F 20.1 °F 29.87 in West 17.6 mph 19.6 mph 61 % 0.00 in 0.0 W/m2 CLR
07:01 32.0 °F 20.1 °F 29.88 in West 13.4 mph 17.3 mph 61 % 0.00 in 0.0 W/m2 CLR
07:06 32.2 °F 19.9 °F 29.88 in WNW 13.1 mph 18.4 mph 60 % 0.00 in 0.0 W/m2 CLR
07:11 32.3 °F 20.0 °F 29.88 in WNW 13.5 mph 23.0 mph 60 % 0.00 in 5.0 W/m2 CLR
07:16 32.4 °F 20.0 °F 29.89 in West 6.9 mph 18.4 mph 60 % 0.00 in 5.0 W/m2 CLR
07:21 32.5 °F 20.1 °F 29.89 in West 7.3 mph 26.5 mph 60 % 0.00 in 7.0 W/m2 CLR
07:26 32.5 °F 20.5 °F 29.89 in WNW 13.1 mph 18.4 mph 61 % 0.00 in 9.0 W/m2 CLR
07:31 32.6 °F 20.6 °F 29.89 in NW 14.3 mph 19.6 mph 61 % 0.00 in 12.0 W/m2 CLR
07:36 32.7 °F 20.7 °F 29.89 in West 14.7 mph 19.6 mph 61 % 0.00 in 14.0 W/m2 CLR
07:41 32.7 °F 20.7 °F 29.90 in West 11.9 mph 19.6 mph 61 % 0.00 in 18.0 W/m2 CLR
07:46 32.7 °F 20.7 °F 29.90 in WNW 14.2 mph 19.6 mph 61 % 0.00 in 28.0 W/m2 BKN
07:51 32.8 °F 20.8 °F 29.90 in WNW 13.8 mph 26.5 mph 61 % 0.00 in 32.0 W/m2 BKN
07:56 32.8 °F 21.2 °F 29.90 in NW 11.1 mph 18.4 mph 62 % 0.00 in 35.0 W/m2 BKN
08:01 32.8 °F 21.2 °F 29.90 in West 10.7 mph 15.0 mph 62 % 0.00 in 44.0 W/m2 BKN
08:06 32.9 °F 21.3 °F 29.91 in West 15.3 mph 21.9 mph 62 % 0.00 in 39.0 W/m2 BKN
08:11 32.9 °F 21.3 °F 29.91 in NW 8.4 mph 13.8 mph 62 % 0.00 in 47.0 W/m2 BKN
08:16 33.0 °F 21.4 °F 29.91 in NW 7.4 mph 12.7 mph 62 % 0.00 in 60.0 W/m2 SCT
08:21 33.1 °F 21.5 °F 29.92 in WSW 15.9 mph 25.3 mph 62 % 0.00 in 70.0 W/m2 SCT
08:26 33.2 °F 21.6 °F 29.92 in NW 9.2 mph 11.5 mph 62 % 0.00 in 65.0 W/m2 BKN
08:31 33.3 °F 21.7 °F 29.92 in West 11.5 mph 23.0 mph 62 % 0.00 in 90.0 W/m2 SCT
08:36 33.4 °F 21.8 °F 29.92 in West 8.3 mph 13.8 mph 62 % 0.00 in 193.0 W/m2 CLR
08:41 33.6 °F 22.0 °F 29.93 in WNW 11.2 mph 16.1 mph 62 % 0.00 in 137.0 W/m2 FEW
08:46 33.8 °F 22.1 °F 29.92 in NW 16.3 mph 23.0 mph 62 % 0.00 in 158.0 W/m2 CLR
08:51 33.9 °F 22.2 °F 29.92 in West 8.5 mph 15.0 mph 62 % 0.00 in 128.0 W/m2 SCT
08:56 33.9 °F 22.2 °F 29.92 in West 10.5 mph 18.4 mph 62 % 0.00 in 322.0 W/m2 SCT
09:01 34.3 °F 22.6 °F 29.92 in WSW 14.2 mph 24.2 mph 62 % 0.00 in 362.0 W/m2 CLR
09:07 34.5 °F 22.4 °F 29.93 in WNW 11.1 mph 17.3 mph 61 % 0.00 in 297.0 W/m2 CLR
09:12 34.6 °F 22.5 °F 29.92 in WNW 13.8 mph 26.5 mph 61 % 0.00 in 248.0 W/m2 CLR
09:17 34.8 °F 22.7 °F 29.92 in West 15.9 mph 25.3 mph 61 % 0.00 in 294.0 W/m2 CLR
09:22 35.0 °F 22.9 °F 29.93 in West 14.0 mph 24.0 mph 61 % 0.00 in 98.0 W/m2 FEW
09:27 34.9 °F 22.8 °F 29.92 in WNW 15.3 mph 26.5 mph 61 % 0.00 in 336.0 W/m2 CLR
09:32 35.2 °F 23.1 °F 29.93 in WNW 11.7 mph 26.5 mph 61 % 0.00 in 285.0 W/m2 CLR
09:37 35.5 °F 23.0 °F 29.92 in NW 11.2 mph 19.6 mph 60 % 0.00 in 503.0 W/m2 CLR
09:42 35.7 °F 22.8 °F 29.93 in WNW 13.8 mph 20.7 mph 59 % 0.00 in 545.0 W/m2 CLR
09:47 35.7 °F 23.2 °F 29.93 in WNW 14.5 mph 20.7 mph 60 % 0.00 in 517.0 W/m2 CLR
09:52 35.7 °F 22.8 °F 29.93 in NW 11.3 mph 17.3 mph 59 % 0.00 in 696.0 W/m2 CLR
09:57 35.8 °F 22.9 °F 29.93 in West 14.6 mph 24.2 mph 59 % 0.00 in 248.0 W/m2 FEW
10:02 35.8 °F 23.3 °F 29.94 in WNW 15.0 mph 20.0 mph 60 % 0.00 in 287.0 W/m2 FEW
10:07 35.9 °F 23.0 °F 29.94 in WNW 13.2 mph 20.0 mph 59 % 0.00 in 287.0 W/m2 FEW
10:12 35.7 °F 22.8 °F 29.94 in West 10.8 mph 18.4 mph 59 % 0.00 in 285.0 W/m2 FEW
10:17 35.5 °F 23.0 °F 29.94 in WNW 12.7 mph 19.0 mph 60 % 0.00 in 276.0 W/m2 FEW
10:22 35.3 °F 22.4 °F 29.94 in NW 16.7 mph 20.7 mph 59 % 0.00 in 237.0 W/m2 FEW
10:27 35.3 °F 22.8 °F 29.95 in WNW 9.1 mph 19.6 mph 60 % 0.00 in 265.0 W/m2 SCT
10:32 35.4 °F 23.3 °F 29.95 in West 10.5 mph 20.0 mph 61 % 0.00 in 227.0 W/m2 SCT
10:37 35.3 °F 22.8 °F 29.95 in NW 18.8 mph 24.2 mph 60 % 0.00 in 243.0 W/m2 SCT
10:42 35.6 °F 22.7 °F 29.94 in NW 18.0 mph 26.5 mph 59 % 0.00 in 269.0 W/m2 FEW
10:47 35.9 °F 23.0 °F 29.94 in West 10.8 mph 19.6 mph 59 % 0.00 in 267.0 W/m2 SCT
10:52 35.8 °F 22.0 °F 29.94 in WNW 19.8 mph 29.9 mph 57 % 0.00 in 336.0 W/m2 FEW
10:57 35.9 °F 22.5 °F 29.95 in NNW 18.1 mph 25.3 mph 58 % 0.00 in 206.0 W/m2 FEW
11:02 36.2 °F 22.4 °F 29.94 in WNW 13.9 mph 26.5 mph 57 % 0.00 in 251.0 W/m2 CLR
11:07 36.4 °F 22.6 °F 29.94 in WNW 18.6 mph 23.0 mph 57 % 0.00 in 220.0 W/m2 BKN
11:12 36.3 °F 22.5 °F 29.94 in WNW 11.0 mph 21.9 mph 57 % 0.00 in 271.0 W/m2 SCT
11:17 36.3 °F 22.5 °F 29.95 in WNW 14.9 mph 19.6 mph 57 % 0.00 in 218.0 W/m2 SCT
11:22 36.1 °F 21.9 °F 29.95 in WNW 17.2 mph 23.0 mph 56 % 0.00 in 248.0 W/m2 SCT
11:27 36.0 °F 22.2 °F 29.94 in West 12.9 mph 25.3 mph 57 % 0.00 in 318.0 W/m2 SCT
11:32 36.1 °F 22.3 °F 29.95 in NW 19.8 mph 26.5 mph 57 % 0.00 in 295.0 W/m2 SCT
11:37 36.4 °F 22.6 °F 29.95 in West 14.2 mph 21.0 mph 57 % 0.00 in 338.0 W/m2 SCT
11:42 36.2 °F 22.4 °F 29.95 in WNW 13.9 mph 19.6 mph 57 % 0.00 in 241.0 W/m2 SCT
11:47 36.5 °F 22.7 °F 29.95 in WNW 16.1 mph 22.0 mph 57 % 0.00 in 302.0 W/m2 SCT
11:52 36.7 °F 22.5 °F 29.95 in West 18.6 mph 27.6 mph 56 % 0.00 in 554.0 W/m2 CLR
11:57 36.6 °F 22.4 °F 29.94 in WSW 18.4 mph 23.0 mph 56 % 0.00 in 512.0 W/m2 CLR
12:02 36.5 °F 22.3 °F 29.94 in WNW 17.6 mph 25.0 mph 56 % 0.00 in 810.0 W/m2 CLR
12:08 36.8 °F 22.6 °F 29.94 in West 14.9 mph 20.7 mph 56 % 0.00 in 935.0 W/m2 CLR
12:13 37.0 °F 22.7 °F 29.94 in WNW 14.8 mph 22.0 mph 56 % 0.00 in 343.0 W/m2 SCT
12:18 36.8 °F 22.1 °F 29.94 in NW 19.1 mph 26.5 mph 55 % 0.00 in 722.0 W/m2 CLR
12:23 36.5 °F 21.8 °F 29.94 in NW 14.4 mph 20.7 mph 55 % 0.00 in 279.0 W/m2 SCT
12:28 36.3 °F 21.7 °F 29.93 in NW 12.8 mph 26.5 mph 55 % 0.00 in 390.0 W/m2 FEW
12:33 36.4 °F 22.2 °F 29.94 in WNW 11.5 mph 21.9 mph 56 % 0.00 in 323.0 W/m2 SCT
12:38 36.7 °F 22.5 °F 29.94 in NW 16.8 mph 27.6 mph 56 % 0.00 in 533.0 W/m2 FEW
12:43 36.3 °F 21.2 °F 29.93 in WNW 17.0 mph 26.5 mph 54 % 0.00 in 332.0 W/m2 SCT
12:48 36.3 °F 21.7 °F 29.94 in WNW 13.6 mph 23.0 mph 55 % 0.00 in 251.0 W/m2 SCT
12:53 36.1 °F 21.5 °F 29.94 in West 14.5 mph 23.0 mph 55 % 0.00 in 265.0 W/m2 SCT
12:58 36.6 °F 21.9 °F 29.94 in West 12.1 mph 19.6 mph 55 % 0.00 in 299.0 W/m2 SCT
13:03 36.2 °F 21.1 °F 29.94 in NW 14.8 mph 25.3 mph 54 % 0.00 in 281.0 W/m2 SCT
13:08 36.4 °F 21.3 °F 29.94 in NW 15.8 mph 24.2 mph 54 % 0.00 in 288.0 W/m2 SCT
13:13 36.7 °F 21.6 °F 29.94 in NW 18.7 mph 26.5 mph 54 % 0.00 in 193.0 W/m2 BKN
13:18 36.8 °F 22.1 °F 29.94 in NW 17.2 mph 34.5 mph 55 % 0.00 in 751.0 W/m2 CLR
13:23 36.6 °F 20.6 °F 29.94 in WNW 23.2 mph 31.1 mph 52 % 0.00 in 691.0 W/m2 CLR
13:28 36.8 °F 21.3 °F 29.93 in WSW 20.8 mph 32.2 mph 53 % 0.00 in 691.0 W/m2 CLR
13:33 37.3 °F 21.7 °F 29.93 in WNW 18.4 mph 26.5 mph 53 % 0.00 in 638.0 W/m2 CLR
13:38 37.6 °F 22.0 °F 29.93 in WNW 13.2 mph 23.0 mph 53 % 0.00 in 647.0 W/m2 CLR
13:43 37.4 °F 21.4 °F 29.93 in WNW 17.0 mph 23.0 mph 52 % 0.00 in 682.0 W/m2 CLR
13:48 36.9 °F 21.3 °F 29.94 in NNW 13.6 mph 26.5 mph 53 % 0.00 in 153.0 W/m2 FEW
13:53 36.8 °F 20.8 °F 29.94 in West 15.5 mph 28.8 mph 52 % 0.00 in 619.0 W/m2 FEW
13:58 37.0 °F 21.4 °F 29.94 in WSW 15.6 mph 28.8 mph 53 % 0.00 in 642.0 W/m2 CLR
14:03 37.1 °F 21.5 °F 29.95 in ENE 15.9 mph 23.0 mph 53 % 0.00 in 179.0 W/m2 BKN
14:08 37.8 °F 22.6 °F 29.95 in WNW 8.0 mph 17.0 mph 54 % 0.00 in 524.0 W/m2 CLR
14:13 37.9 °F 21.8 °F 29.95 in North 16.1 mph 25.3 mph 52 % 0.00 in 679.0 W/m2 CLR
14:18 37.3 °F 21.3 °F 29.95 in NW 9.1 mph 18.4 mph 52 % 0.00 in 721.0 W/m2 FEW
14:23 36.6 °F 21.1 °F 29.96 in NW 17.6 mph 24.2 mph 53 % 0.00 in 241.0 W/m2 SCT
14:28 37.0 °F 21.4 °F 29.96 in WNW 15.6 mph 19.6 mph 53 % 0.00 in 745.0 W/m2 CLR
14:33 36.7 °F 20.3 °F 29.96 in WNW 15.0 mph 27.6 mph 51 % 0.00 in 251.0 W/m2 FEW
14:38 36.2 °F 20.2 °F 29.96 in NW 18.8 mph 26.5 mph 52 % 0.00 in 230.0 W/m2 SCT
14:43 35.9 °F 20.0 °F 29.96 in WNW 15.5 mph 25.3 mph 52 % 0.00 in 218.0 W/m2 SCT
14:48 35.7 °F 20.2 °F 29.97 in NW 16.3 mph 25.3 mph 53 % 0.00 in 181.0 W/m2 BKN
14:53 35.7 °F 20.7 °F 29.96 in NW 10.7 mph 19.6 mph 54 % 0.00 in 246.0 W/m2 SCT
14:58 36.1 °F 21.0 °F 29.97 in WSW 8.3 mph 26.0 mph 54 % 0.00 in 220.0 W/m2 FEW
15:03 36.2 °F 20.7 °F 29.97 in NW 15.2 mph 20.7 mph 53 % 0.00 in 193.0 W/m2 SCT
15:08 36.2 °F 21.1 °F 29.97 in WNW 15.1 mph 20.7 mph 54 % 0.00 in 301.0 W/m2 FEW
15:13 36.7 °F 20.7 °F 29.97 in NW 17.0 mph 28.8 mph 52 % 0.00 in 178.0 W/m2 CLR
15:23 36.3 °F 20.3 °F 29.97 in NW 13.3 mph 19.0 mph 52 % 0.00 in 186.0 W/m2 SCT
15:28 36.1 °F 20.6 °F 29.97 in NNW 13.8 mph 19.6 mph 53 % 0.00 in 151.0 W/m2 BKN
15:33 36.1 °F 21.0 °F 29.97 in NW 14.5 mph 20.7 mph 54 % 0.00 in 132.0 W/m2 FEW
15:38 35.8 °F 20.8 °F 29.97 in NW 13.0 mph 15.0 mph 54 % 0.00 in 132.0 W/m2 BKN
15:43 35.6 °F 20.6 °F 29.97 in NW 12.6 mph 21.9 mph 54 % 0.00 in 97.0 W/m2 BKN
15:48 35.4 °F 19.9 °F 29.98 in NW 16.3 mph 24.2 mph 53 % 0.00 in 107.0 W/m2 BKN
15:53 35.3 °F 20.3 °F 29.98 in WNW 14.2 mph 24.2 mph 54 % 0.00 in 141.0 W/m2 SCT
15:58 35.3 °F 20.3 °F 29.99 in NW 10.7 mph 16.0 mph 54 % 0.00 in 114.0 W/m2 SCT
16:03 35.2 °F 20.2 °F 29.99 in NW 10.8 mph 16.1 mph 54 % 0.00 in 107.0 W/m2 SCT
16:08 35.2 °F 20.2 °F 29.99 in NNW 10.6 mph 19.6 mph 54 % 0.00 in 104.0 W/m2 SCT
16:13 35.1 °F 20.1 °F 29.99 in NW 10.1 mph 17.0 mph 54 % 0.00 in 76.0 W/m2 BKN
16:18 35.0 °F 20.0 °F 30.00 in NNE 10.9 mph 19.6 mph 54 % 0.00 in 65.0 W/m2 BKN
16:23 34.9 °F 19.9 °F 30.00 in NNW 13.2 mph 20.7 mph 54 % 0.00 in 54.0 W/m2 BKN
16:28 34.7 °F 20.2 °F 30.00 in WNW 10.1 mph 11.5 mph 55 % 0.00 in 47.0 W/m2 BKN
16:33 34.6 °F 20.1 °F 30.00 in NNW 8.4 mph 11.5 mph 55 % 0.00 in 40.0 W/m2 BKN
16:39 34.5 °F 19.5 °F 30.00 in NW 14.0 mph 17.3 mph 54 % 0.00 in 37.0 W/m2 BKN
16:44 34.4 °F 19.9 °F 30.00 in NNW 11.5 mph 20.7 mph 55 % 0.00 in 33.0 W/m2 BKN
16:49 34.4 °F 19.9 °F 30.00 in WNW 11.9 mph 19.6 mph 55 % 0.00 in 32.0 W/m2 BKN
16:54 34.3 °F 20.2 °F 30.00 in WNW 12.8 mph 17.3 mph 56 % 0.00 in 28.0 W/m2 BKN
16:59 34.2 °F 19.7 °F 30.00 in NW 15.3 mph 19.6 mph 55 % 0.00 in 25.0 W/m2 BKN
17:04 34.1 °F 20.0 °F 30.00 in NNW 12.3 mph 18.4 mph 56 % 0.00 in 21.0 W/m2 BKN
17:09 34.0 °F 19.9 °F 30.01 in NNW 13.4 mph 20.7 mph 56 % 0.00 in 16.0 W/m2 BKN
17:14 33.9 °F 19.8 °F 30.01 in NW 15.8 mph 18.4 mph 56 % 0.00 in 16.0 W/m2 SCT
17:19 33.9 °F 19.8 °F 30.01 in WNW 11.7 mph 17.3 mph 56 % 0.00 in 14.0 W/m2 FEW
17:24 33.8 °F 20.2 °F 30.01 in NW 10.4 mph 15.0 mph 57 % 0.00 in 11.0 W/m2 CLR
17:29 33.7 °F 20.1 °F 30.01 in NNW 7.4 mph 11.5 mph 57 % 0.00 in 7.0 W/m2 CLR
17:34 33.6 °F 20.0 °F 30.02 in NW 6.5 mph 10.4 mph 57 % 0.00 in 5.0 W/m2 CLR
17:39 33.5 °F 19.9 °F 30.02 in WNW 9.6 mph 15.0 mph 57 % 0.00 in 0.0 W/m2 CLR
17:44 33.4 °F 19.8 °F 30.03 in NW 7.2 mph 11.5 mph 57 % 0.00 in 0.0 W/m2 CLR
17:49 33.4 °F 19.8 °F 30.03 in NNW 11.1 mph 16.1 mph 57 % 0.00 in 0.0 W/m2 CLR
17:54 33.4 °F 19.8 °F 30.03 in WNW 12.4 mph 19.6 mph 57 % 0.00 in 0.0 W/m2 CLR
17:59 33.3 °F 19.7 °F 30.03 in NW 12.2 mph 16.1 mph 57 % 0.00 in 0.0 W/m2 CLR
18:04 33.2 °F 20.0 °F 30.03 in North 8.5 mph 13.8 mph 58 % 0.00 in 0.0 W/m2 CLR
18:09 33.1 °F 19.9 °F 30.03 in NNW 9.0 mph 12.0 mph 58 % 0.00 in 0.0 W/m2 CLR
18:14 33.0 °F 20.2 °F 30.03 in NW 5.6 mph 11.5 mph 59 % 0.00 in 0.0 W/m2 CLR
18:19 33.0 °F 20.2 °F 30.03 in NW 7.4 mph 10.4 mph 59 % 0.00 in 0.0 W/m2 CLR
18:24 32.8 °F 20.0 °F 30.03 in NW 6.1 mph 11.5 mph 59 % 0.00 in 0.0 W/m2 CLR
18:29 32.7 °F 20.3 °F 30.04 in WNW 3.5 mph 6.9 mph 60 % 0.00 in 0.0 W/m2 CLR
18:34 32.7 °F 20.3 °F 30.04 in WNW 3.4 mph 4.0 mph 60 % 0.00 in 0.0 W/m2 CLR
18:39 32.7 °F 20.3 °F 30.04 in NW 4.7 mph 10.4 mph 60 % 0.00 in 0.0 W/m2 CLR
18:44 32.8 °F 20.0 °F 30.04 in NW 2.2 mph 4.0 mph 59 % 0.00 in 0.0 W/m2 CLR
18:49 32.8 °F 20.0 °F 30.04 in WNW 5.2 mph 8.0 mph 59 % 0.00 in 0.0 W/m2 CLR
18:54 32.8 °F 20.0 °F 30.04 in WNW 4.1 mph 9.2 mph 59 % 0.00 in 0.0 W/m2 CLR
18:59 32.8 °F 20.0 °F 30.04 in NW 7.2 mph 16.1 mph 59 % 0.00 in 0.0 W/m2 CLR
19:04 32.8 °F 20.0 °F 30.04 in NNW 11.3 mph 15.0 mph 59 % 0.00 in 0.0 W/m2 CLR
19:09 32.8 °F 20.0 °F 30.04 in NW 7.3 mph 15.0 mph 59 % 0.00 in 0.0 W/m2 CLR
19:14 32.7 °F 19.9 °F 30.04 in NNW 6.3 mph 9.2 mph 59 % 0.00 in 0.0 W/m2 CLR
19:19 32.6 °F 19.8 °F 30.04 in NW 4.8 mph 11.5 mph 59 % 0.00 in 0.0 W/m2 CLR
19:24 32.6 °F 20.2 °F 30.05 in WNW 4.9 mph 8.1 mph 60 % 0.00 in 0.0 W/m2 CLR
19:29 32.6 °F 20.2 °F 30.05 in WNW 3.7 mph 4.0 mph 60 % 0.00 in 0.0 W/m2 CLR
19:34 32.6 °F 20.2 °F 30.05 in WNW 3.2 mph 9.2 mph 60 % 0.00 in 0.0 W/m2 CLR
19:39 32.6 °F 20.2 °F 30.05 in NW 6.2 mph 9.2 mph 60 % 0.00 in 0.0 W/m2 CLR
19:44 32.6 °F 20.2 °F 30.05 in WNW 7.7 mph 13.8 mph 60 % 0.00 in 0.0 W/m2 CLR
19:49 32.6 °F 20.6 °F 30.05 in NW 8.4 mph 11.5 mph 61 % 0.00 in 0.0 W/m2 CLR
19:54 32.6 °F 20.6 °F 30.05 in WNW 9.8 mph 16.0 mph 61 % 0.00 in 0.0 W/m2 CLR
19:59 32.6 °F 20.2 °F 30.05 in NW 5.9 mph 11.5 mph 60 % 0.00 in 0.0 W/m2 CLR
20:04 32.5 °F 20.1 °F 30.05 in WNW 10.9 mph 15.0 mph 60 % 0.00 in 0.0 W/m2 CLR
20:09 32.4 °F 20.0 °F 30.06 in WNW 4.9 mph 11.5 mph 60 % 0.00 in 0.0 W/m2 CLR
20:14 32.3 °F 20.3 °F 30.06 in NW 8.0 mph 14.0 mph 61 % 0.00 in 0.0 W/m2 CLR
20:19 32.3 °F 20.3 °F 30.06 in NW 8.2 mph 12.0 mph 61 % 0.00 in 0.0 W/m2 CLR
20:24 32.3 °F 20.3 °F 30.06 in NW 5.4 mph 10.4 mph 61 % 0.00 in 0.0 W/m2 CLR
20:29 32.2 °F 20.2 °F 30.06 in NW 10.1 mph 10.4 mph 61 % 0.00 in 0.0 W/m2 CLR
20:35 32.1 °F 20.2 °F 30.06 in WNW 9.3 mph 15.0 mph 61 % 0.00 in 0.0 W/m2 CLR
20:40 32.0 °F 20.1 °F 30.06 in NW 5.8 mph 11.5 mph 61 % 0.00 in 0.0 W/m2 CLR
20:45 31.9 °F 20.3 °F 30.06 in NW 5.7 mph 5.8 mph 62 % 0.00 in 0.0 W/m2 CLR
20:50 31.8 °F 20.3 °F 30.07 in NW 3.2 mph 11.5 mph 62 % 0.00 in 0.0 W/m2 CLR
20:55 31.9 °F 20.0 °F 30.07 in West 3.5 mph 10.4 mph 61 % 0.00 in 0.0 W/m2 CLR
21:00 32.0 °F 20.1 °F 30.07 in WNW 4.4 mph 4.6 mph 61 % 0.00 in 0.0 W/m2 CLR
21:05 31.9 °F 20.0 °F 30.07 in WNW 7.0 mph 14.0 mph 61 % 0.00 in 0.0 W/m2 CLR
21:10 31.9 °F 20.0 °F 30.07 in WNW 6.0 mph 14.0 mph 61 % 0.00 in 0.0 W/m2 CLR
21:15 31.9 °F 20.0 °F 30.07 in WNW 9.8 mph 11.5 mph 61 % 0.00 in 0.0 W/m2 CLR
21:20 31.9 °F 20.0 °F 30.07 in NW 4.1 mph 11.5 mph 61 % 0.00 in 0.0 W/m2 CLR
21:25 31.8 °F 19.9 °F 30.07 in NW 6.8 mph 11.5 mph 61 % 0.00 in 0.0 W/m2 CLR
21:30 31.8 °F 19.9 °F 30.07 in WNW 8.0 mph 13.8 mph 61 % 0.00 in 0.0 W/m2 CLR
21:35 31.7 °F 19.8 °F 30.07 in WNW 4.3 mph 8.1 mph 61 % 0.00 in 0.0 W/m2 CLR
21:40 31.6 °F 19.7 °F 30.07 in WNW 2.7 mph 5.8 mph 61 % 0.00 in 0.0 W/m2 CLR
21:45 31.5 °F 20.0 °F 30.07 in WSW 5.3 mph 9.0 mph 62 % 0.00 in 0.0 W/m2 CLR
21:50 31.4 °F 19.9 °F 30.07 in WNW 5.3 mph 10.4 mph 62 % 0.00 in 0.0 W/m2 CLR
21:55 31.3 °F 19.8 °F 30.07 in West 7.5 mph 10.4 mph 62 % 0.00 in 0.0 W/m2 CLR
22:00 31.3 °F 19.4 °F 30.07 in West 3.7 mph 6.9 mph 61 % 0.00 in 0.0 W/m2 CLR
22:05 31.2 °F 19.3 °F 30.07 in West 7.5 mph 13.8 mph 61 % 0.00 in 0.0 W/m2 CLR
22:10 31.1 °F 19.2 °F 30.07 in WNW 5.0 mph 12.0 mph 61 % 0.00 in 0.0 W/m2 CLR
22:15 31.1 °F 19.6 °F 30.07 in NW 8.5 mph 13.0 mph 62 % 0.00 in 0.0 W/m2 CLR
22:20 31.0 °F 19.5 °F 30.07 in WNW 8.8 mph 12.7 mph 62 % 0.00 in 0.0 W/m2 CLR
22:25 31.0 °F 19.5 °F 30.07 in NW 5.5 mph 11.5 mph 62 % 0.00 in 0.0 W/m2 CLR
22:30 30.9 °F 19.4 °F 30.06 in NW 11.2 mph 17.3 mph 62 % 0.00 in 0.0 W/m2 CLR
22:35 30.8 °F 19.3 °F 30.07 in WNW 4.7 mph 11.5 mph 62 % 0.00 in 0.0 W/m2 CLR
22:40 30.7 °F 19.2 °F 30.07 in NW 8.5 mph 13.8 mph 62 % 0.00 in 0.0 W/m2 CLR
22:45 30.7 °F 19.2 °F 30.07 in WNW 1.5 mph 3.5 mph 62 % 0.00 in 0.0 W/m2 CLR
22:50 30.7 °F 19.2 °F 30.07 in WNW 5.5 mph 8.1 mph 62 % 0.00 in 0.0 W/m2 CLR
22:55 30.7 °F 19.2 °F 30.07 in NW 3.6 mph 6.9 mph 62 % 0.00 in 0.0 W/m2 CLR
23:00 30.7 °F 19.2 °F 30.07 in WNW 1.6 mph 5.0 mph 62 % 0.00 in 0.0 W/m2 CLR
23:05 30.7 °F 19.6 °F 30.07 in NW 4.1 mph 10.4 mph 63 % 0.00 in 0.0 W/m2 CLR
23:10 30.7 °F 19.6 °F 30.07 in NNW 7.6 mph 10.4 mph 63 % 0.00 in 0.0 W/m2 CLR
23:15 30.7 °F 19.6 °F 30.06 in NW 2.1 mph 6.9 mph 63 % 0.00 in 0.0 W/m2 CLR
23:20 30.7 °F 19.6 °F 30.06 in NW 2.8 mph 4.6 mph 63 % 0.00 in 0.0 W/m2 CLR
23:25 30.6 °F 19.5 °F 30.06 in NW 1.5 mph 5.8 mph 63 % 0.00 in 0.0 W/m2 CLR
23:30 30.6 °F 19.9 °F 30.06 in NW 7.8 mph 10.4 mph 64 % 0.00 in 0.0 W/m2 CLR
23:35 30.7 °F 19.6 °F 30.06 in NW 1.3 mph 4.0 mph 63 % 0.00 in 0.0 W/m2 CLR
23:40 30.6 °F 19.9 °F 30.05 in NW 6.3 mph 8.1 mph 64 % 0.00 in 0.0 W/m2 CLR
23:45 30.6 °F 19.5 °F 30.05 in NW 4.6 mph 9.2 mph 63 % 0.00 in 0.0 W/m2 CLR
23:50 30.5 °F 19.8 °F 30.04 in WNW 2.0 mph 8.1 mph 64 % 0.00 in 0.0 W/m2 CLR
23:55 30.3 °F 19.9 °F 30.04 in NW 3.1 mph 4.6 mph 65 % 0.00 in 0.0 W/m2 CLR
Air Products Campus Weather
Compliments of Weather Underground - 3.5 mb